Billings Logan International Airport Billings US
ICAO: KBIL
IATA: BIL
Category: Large
Scheduled Services: Yes

Elevation: 3652 ft
TransAlt. 18000 ft.

Airport Communications:
APP/DEP:119.2
ATIS:126.3
CLNC DEL:121.9
GND:121.9
GREAT FALLS RDO:122.55
TWR:124.2
UNICOM:122.95

KBIL Zoom In..

Runways:

(A) RW 07 length 5503 ft width 75 ft
---- / hdg 70

(B) RW 10L length 10521 ft width 150 ft
ILS 110.30 / hdg 98

(C) RW 10R length 3800 ft width 75 ft
---- / hdg 98

(D) RW 25 length 5503 ft width 75 ft
---- / hdg 250

(E) RW 28L length 3800 ft width 75 ft
---- / hdg 278

(F) RW 28R length 10521 ft width 150 ft
ILS 111.50 / hdg 278

Location; KBIL
Day. 21 / Time. 23.53 Zulu
* Altimeter: 30.00
* Temperature: 01° c. 33.8°f.
* Wind from: 230° Speed 05 kn.
Dewpoint: -08° c.
Visibility: 10 Statute Miles.
Clouds: Few 2000 ft.

KBIL 212353Z 23005KT 10SM FEW200 01/M08 A3000 RMK AO2 SLP191 T00111078 10022 21022 55003


Wind From 230°
Speed 05 kn.

jpsM music video
CHECK IT OUT

jpsM - It Moves..

 
jpsmedia.com for Web Design  worldairports.se 2018   terms of use